Airfield :
LOGIN :

Register | Disclaimer

   EN    FR    IT 

 










Legend :    VFR   Marginal VFR   IFR   Intensive IFR   Very Intensive IFR
Visi :
Ceiling :
>= 8 km
>= 3000ft
5 to 8 km
1000 to 3000 ft
1500m to 5 km
500 to 1000 ft
800 to 1500m
200 to 500 ft
< 800m
< 200 ft
Symbols :   Thunderstorms  Fog  Heavy snow  Heavy precipitations  Wind > 20 kt
SIGMETs :     Misc.  Thunderstorms  Icing  Turbulence  Mountain Waves  Volcanic Ashes






- Airport Elevation : 364 ft


LFAQ - Albert Bray

CURRENT METAR :
  • 130430Z AUTO 25016KT 8000 -RA BKN015/// BKN023/// OVC031/// ///CB 06/06 Q0973

EXPIRED METARs :
  • 130400Z AUTO 25019KT 9999 SCT024/// BKN031/// BKN052/// ///CB 06/05 Q0973
  • 130330Z AUTO 24017KT 9999 -RA SCT018/// BKN026/// BKN033/// ///CB 07/05 Q0973
  • 130300Z AUTO 25017KT 9999 -RA FEW015/// SCT031/// BKN038/// ///CB 06/06 Q0973
  • 130230Z AUTO 22022G36KT 200V260 8000 RA FEW014/// OVC021/// ///CB 08/07 Q0973
  • 130200Z AUTO 20015KT 9999 BKN006/// OVC019/// ///TCU 07/07 Q0974

Expired Forecast.



MET'MAP, your aeronautical weather chart ! - Copyright ORBIFLY December 2007 - Disclaimer

ORBIFLY MET'MAP TEAM :

Programming & Development : Alexandra Zaïnal
Concept & original design : Baudouin d'Aumeries
Assistance for programming : Marc-Olivier Méhu
Technical & hardware support : Manuel Goepfert

Contact : metmap@orbifly.com




SOURCES & CREDITS :

   NOAA